createdAt,value
2022-11-17T00:00:44.089Z,97615.00
2022-11-17T00:02:46.435Z,97609.97
2022-11-17T00:04:47.885Z,97608.63
2022-11-17T00:06:49.336Z,97594.91
2022-11-17T00:08:52.867Z,97588.81
2022-11-17T00:10:54.237Z,97588.31
2022-11-17T00:13:14.017Z,97585.13
2022-11-17T00:15:16.123Z,97580.91
2022-11-17T00:17:17.595Z,97564.25
2022-11-17T00:19:37.624Z,97580.09
2022-11-17T00:21:39.079Z,97568.47
2022-11-17T00:23:50.213Z,97567.16
2022-11-17T00:25:52.059Z,97561.56
2022-11-17T00:27:53.661Z,97568.69
2022-11-17T00:29:55.020Z,97559.97
2022-11-17T00:32:15.436Z,97545.19
2022-11-17T00:34:21.700Z,97543.56
2022-11-17T00:36:25.612Z,97540.69
2022-11-17T00:38:26.981Z,97542.28
2022-11-17T00:40:28.816Z,97535.97
2022-11-17T00:42:30.205Z,97532.28
2022-11-17T00:44:31.580Z,97515.94
2022-11-17T00:46:33.288Z,97509.06
2022-11-17T00:48:34.622Z,97498.28
2022-11-17T00:50:36.049Z,97493.00
2022-11-17T00:52:37.446Z,97487.22
2022-11-17T00:54:38.872Z,97472.72
2022-11-17T00:56:40.863Z,97476.66
2022-11-17T00:58:42.304Z,97470.84
2022-11-17T01:00:43.643Z,97464.81
2022-11-17T01:02:44.997Z,97459.28
2022-11-17T01:04:46.423Z,97460.59
2022-11-17T01:06:49.568Z,97455.06
2022-11-17T01:08:51.023Z,97455.56
2022-11-17T01:10:52.511Z,97437.38
2022-11-17T01:12:53.889Z,97442.66
2022-11-17T01:14:55.259Z,97441.06
2022-11-17T01:16:56.704Z,97437.38
2022-11-17T01:19:00.891Z,97438.13
2022-11-17T01:21:11.451Z,97422.56
2022-11-17T01:23:12.868Z,97416.53
2022-11-17T01:25:14.282Z,97414.13
2022-11-17T01:27:15.649Z,97409.63
2022-11-17T01:29:18.060Z,97396.19
2022-11-17T01:31:22.344Z,97398.03
2022-11-17T01:33:23.732Z,97400.69
2022-11-17T01:35:25.072Z,97402.28
2022-11-17T01:37:27.034Z,97394.34
2022-11-17T01:39:30.011Z,97385.88
2022-11-17T01:41:31.361Z,97389.03
2022-11-17T01:43:43.065Z,97384.81
2022-11-17T01:45:44.712Z,97377.16
2022-11-17T01:47:52.514Z,97374.53
2022-11-17T01:50:00.468Z,97369.53
2022-11-17T01:52:07.145Z,97366.34
2022-11-17T01:54:11.025Z,97353.41
2022-11-17T01:56:18.576Z,97350.75
2022-11-17T01:58:32.882Z,97349.16
2022-11-17T02:00:34.519Z,97350.78
2022-11-17T02:02:38.084Z,97344.44
2022-11-17T02:04:53.587Z,97341.56
2022-11-17T02:07:21.659Z,97349.25
2022-11-17T02:09:23.685Z,97337.63
2022-11-17T02:11:26.959Z,97341.88
2022-11-17T02:13:28.823Z,97327.66
2022-11-17T02:15:30.378Z,97327.72
2022-11-17T02:17:37.567Z,97321.38
2022-11-17T02:19:41.848Z,97327.97
2022-11-17T02:21:55.159Z,97325.84
2022-11-17T02:24:19.952Z,97316.34
2022-11-17T02:26:58.680Z,97311.06
2022-11-17T02:29:00.065Z,97307.91
2022-11-17T02:31:17.224Z,97293.94
2022-11-17T02:33:37.591Z,97301.38
2022-11-17T02:35:45.389Z,97296.09
2022-11-17T02:38:07.699Z,97296.41
2022-11-17T02:40:16.146Z,97291.63
2022-11-17T02:42:47.594Z,97300.31
2022-11-17T02:45:11.221Z,97285.28
2022-11-17T02:47:20.270Z,97271.84
2022-11-17T02:49:30.299Z,97265.56
2022-11-17T02:51:34.650Z,97265.81
2022-11-17T02:53:38.503Z,97263.69
2022-11-17T02:55:40.201Z,97262.34
2022-11-17T02:57:41.829Z,97261.59
2022-11-17T02:59:48.177Z,97257.59
2022-11-17T03:02:25.031Z,97258.66
2022-11-17T03:04:31.876Z,97262.91
2022-11-17T03:06:51.899Z,97263.44
2022-11-17T03:09:06.136Z,97260.03
2022-11-17T03:11:08.866Z,97252.13
2022-11-17T03:13:21.157Z,97257.91
2022-11-17T03:15:26.012Z,97240.22
2022-11-17T03:17:29.711Z,97238.13
2022-11-17T03:19:33.831Z,97229.69
2022-11-17T03:21:45.137Z,97227.06
2022-11-17T03:24:04.057Z,97220.00
2022-11-17T03:26:09.673Z,97225.56
2022-11-17T03:28:12.053Z,97222.66
2022-11-17T03:30:14.878Z,97215.81
2022-11-17T03:32:17.900Z,97199.75
2022-11-17T03:34:24.360Z,97207.94
2022-11-17T03:36:34.998Z,97205.25
2022-11-17T03:38:42.106Z,97204.53
2022-11-17T03:40:47.201Z,97199.25
2022-11-17T03:42:53.954Z,97195.03
2022-11-17T03:45:01.851Z,97197.09
2022-11-17T03:47:06.626Z,97202.66
2022-11-17T03:49:19.869Z,97197.91
2022-11-17T03:51:25.849Z,97188.97
2022-11-17T03:53:27.352Z,97196.63
2022-11-17T03:55:36.476Z,97193.19
2022-11-17T03:57:59.701Z,97191.09
2022-11-17T04:00:07.545Z,97188.22
2022-11-17T04:02:14.926Z,97180.03
2022-11-17T04:04:20.103Z,97179.75
2022-11-17T04:06:21.560Z,97168.41
2022-11-17T04:08:25.830Z,97174.97
2022-11-17T04:10:27.249Z,97182.09
2022-11-17T04:12:47.050Z,97171.84
2022-11-17T04:15:06.799Z,97174.75
2022-11-17T04:17:08.395Z,97183.22
2022-11-17T04:19:09.771Z,97168.69
2022-11-17T04:21:11.106Z,97164.50
2022-11-17T04:23:14.325Z,97173.47
2022-11-17T04:25:35.781Z,97169.78
2022-11-17T04:27:55.815Z,97164.25
2022-11-17T04:29:57.147Z,97165.53
2022-11-17T04:31:58.506Z,97162.13
2022-11-17T04:34:02.149Z,97157.38
2022-11-17T04:36:04.655Z,97157.63
2022-11-17T04:38:06.019Z,97152.91
2022-11-17T04:40:08.199Z,97159.25
2022-11-17T04:42:09.540Z,97148.16
2022-11-17T04:44:13.169Z,97153.72
2022-11-17T04:46:15.912Z,97140.53
2022-11-17T04:48:17.278Z,97139.44
2022-11-17T04:50:18.617Z,97131.31
2022-11-17T04:52:21.462Z,97130.53
2022-11-17T04:54:26.190Z,97125.28
2022-11-17T04:56:27.855Z,97124.81
2022-11-17T04:58:29.376Z,97136.16
2022-11-17T05:00:30.704Z,97143.84
2022-11-17T05:02:32.141Z,97140.94
2022-11-17T05:04:52.230Z,97138.25
2022-11-17T05:06:53.628Z,97145.09
2022-11-17T05:08:56.283Z,97143.75
2022-11-17T05:11:17.015Z,97145.88
2022-11-17T05:13:27.213Z,97145.63
2022-11-17T05:15:47.222Z,97136.41
2022-11-17T05:17:48.560Z,97135.84
2022-11-17T05:19:50.005Z,97121.31
2022-11-17T05:21:52.068Z,97116.81
2022-11-17T05:23:56.092Z,97125.78
2022-11-17T05:25:57.428Z,97117.06
2022-11-17T05:27:58.766Z,97126.88
2022-11-17T05:30:04.835Z,97110.63
2022-11-17T05:32:06.158Z,97108.47
2022-11-17T05:34:09.318Z,97092.97
2022-11-17T05:36:11.268Z,97109.81
2022-11-17T05:38:12.664Z,97096.94
2022-11-17T05:40:14.108Z,97089.63
2022-11-17T05:42:15.468Z,97085.69
2022-11-17T05:44:16.893Z,97103.91
2022-11-17T05:46:19.695Z,97084.44
2022-11-17T05:48:21.220Z,97090.28
2022-11-17T05:50:22.620Z,97081.03
2022-11-17T05:52:23.971Z,97082.06
2022-11-17T05:54:26.790Z,97079.41
2022-11-17T05:56:31.565Z,97073.25
2022-11-17T05:58:34.820Z,97080.59
2022-11-17T06:00:39.838Z,97081.31
2022-11-17T06:02:47.199Z,97079.44
2022-11-17T06:04:51.577Z,97084.97
2022-11-17T06:06:58.771Z,97082.31
2022-11-17T06:09:00.270Z,97081.75
2022-11-17T06:11:01.696Z,97079.34
2022-11-17T06:13:03.265Z,97083.00
2022-11-17T06:15:05.212Z,97088.28
2022-11-17T06:17:21.886Z,97097.38
2022-11-17T06:19:30.821Z,97103.34
2022-11-17T06:22:04.527Z,97099.91
2022-11-17T06:23:55.655Z,97099.41
2022-11-17T06:25:59.387Z,97104.69
2022-11-17T06:28:04.512Z,97110.78
2022-11-17T06:30:06.830Z,97100.25
2022-11-17T06:32:08.356Z,97105.25
2022-11-17T06:34:10.077Z,97103.19
2022-11-17T06:36:11.802Z,97093.69
2022-11-17T06:38:13.328Z,97084.19
2022-11-17T06:40:15.229Z,97087.38
2022-11-17T06:42:16.580Z,97084.25
2022-11-17T06:44:18.340Z,97089.22
2022-11-17T06:46:19.715Z,97078.97
2022-11-17T06:48:27.035Z,97083.78
2022-11-17T06:50:28.511Z,97090.63
2022-11-17T06:52:29.871Z,97086.44
2022-11-17T06:54:31.224Z,97086.91
2022-11-17T06:56:32.609Z,97089.28
2022-11-17T06:58:35.690Z,97092.47
2022-11-17T07:00:38.248Z,97090.34
2022-11-17T07:02:39.667Z,97099.31
2022-11-17T07:04:41.028Z,97102.19
2022-11-17T07:06:42.370Z,97102.94
2022-11-17T07:08:45.290Z,97107.91
2022-11-17T07:10:49.468Z,97113.19
2022-11-17T07:12:51.000Z,97116.91
2022-11-17T07:14:52.484Z,97125.13
2022-11-17T07:16:53.906Z,97125.09
2022-11-17T07:18:55.399Z,97124.53
2022-11-17T07:21:00.492Z,97123.41
2022-11-17T07:23:01.848Z,97114.19
2022-11-17T07:25:04.037Z,97116.81
2022-11-17T07:27:06.449Z,97122.09
2022-11-17T07:29:07.799Z,97130.72
2022-11-17T07:31:09.643Z,97132.31
2022-11-17T07:33:10.968Z,97134.72
2022-11-17T07:35:12.367Z,97134.72
2022-11-17T07:37:13.840Z,97127.88
2022-11-17T07:39:21.069Z,97127.06
2022-11-17T07:41:23.005Z,97132.13
2022-11-17T07:43:24.383Z,97120.28
2022-11-17T07:45:31.376Z,97124.50
2022-11-17T07:47:33.537Z,97115.75
2022-11-17T07:49:34.952Z,97118.16
2022-11-17T07:51:36.297Z,97118.66
2022-11-17T07:53:37.658Z,97120.75
2022-11-17T07:55:39.052Z,97125.97
2022-11-17T07:57:40.403Z,97114.41
2022-11-17T07:59:41.739Z,97118.34
2022-11-17T08:01:43.164Z,97119.94
2022-11-17T08:03:44.563Z,97117.09
2022-11-17T08:05:46.019Z,97120.75
2022-11-17T08:07:55.372Z,97126.28
2022-11-17T08:09:56.708Z,97126.50
2022-11-17T08:11:59.232Z,97132.28
2022-11-17T08:14:00.573Z,97138.06
2022-11-17T08:16:02.548Z,97133.22
2022-11-17T08:18:04.603Z,97137.16
2022-11-17T08:20:06.382Z,97134.03
2022-11-17T08:22:07.769Z,97133.97
2022-11-17T08:24:09.292Z,97132.41
2022-11-17T08:26:11.712Z,97141.13
2022-11-17T08:28:13.097Z,97138.25
2022-11-17T08:30:14.860Z,97144.06
2022-11-17T08:32:16.355Z,97142.22
2022-11-17T08:34:17.721Z,97148.84
2022-11-17T08:36:19.112Z,97150.66
2022-11-17T08:38:20.465Z,97159.81
2022-11-17T08:40:22.150Z,97159.81
2022-11-17T08:42:23.663Z,97160.53
2022-11-17T08:44:25.070Z,97156.28
2022-11-17T08:46:27.002Z,97156.28
2022-11-17T08:48:29.520Z,97163.63
2022-11-17T08:50:30.911Z,97164.69
2022-11-17T08:52:32.716Z,97157.28
2022-11-17T08:54:34.174Z,97166.03
2022-11-17T08:56:35.507Z,97165.81
2022-11-17T08:58:44.506Z,97178.50
2022-11-17T09:00:47.266Z,97179.84
2022-11-17T09:02:49.134Z,97185.50
2022-11-17T09:04:50.607Z,97184.72
2022-11-17T09:06:52.018Z,97187.84
2022-11-17T09:08:54.760Z,97205.22
2022-11-17T09:10:56.423Z,97200.28
2022-11-17T09:12:58.472Z,97212.16
2022-11-17T09:14:59.810Z,97200.25
2022-11-17T09:17:01.174Z,97215.78
2022-11-17T09:19:02.968Z,97210.44
2022-11-17T09:21:08.023Z,97220.41
2022-11-17T09:23:09.394Z,97217.84
2022-11-17T09:25:13.580Z,97228.19
2022-11-17T09:27:15.191Z,97226.72
2022-11-17T09:29:17.043Z,97231.19
2022-11-17T09:31:20.875Z,97230.66
2022-11-17T09:33:22.342Z,97239.66
2022-11-17T09:35:23.738Z,97241.41
2022-11-17T09:37:26.404Z,97236.38
2022-11-17T09:39:27.815Z,97243.97
2022-11-17T09:41:48.750Z,97242.41
2022-11-17T09:43:59.346Z,97236.44
2022-11-17T09:46:13.080Z,97243.13
2022-11-17T09:48:40.635Z,97241.94
2022-11-17T09:50:44.980Z,97246.38
2022-11-17T09:52:58.655Z,97238.88
2022-11-17T09:55:20.395Z,97251.13
2022-11-17T09:57:38.487Z,97240.34
2022-11-17T09:59:39.946Z,97243.09
2022-11-17T10:01:41.609Z,97246.75
2022-11-17T10:03:46.192Z,97249.63
2022-11-17T10:05:48.781Z,97244.59
2022-11-17T10:07:52.372Z,97243.63
2022-11-17T10:09:55.213Z,97247.41
2022-11-17T10:12:12.943Z,97243.25
2022-11-17T10:14:20.472Z,97246.91
2022-11-17T10:16:21.948Z,97255.25
2022-11-17T10:18:23.339Z,97256.13
2022-11-17T10:20:25.067Z,97250.47
2022-11-17T10:22:37.061Z,97253.50
2022-11-17T10:24:42.616Z,97256.91
2022-11-17T10:26:47.441Z,97265.00
2022-11-17T10:29:08.556Z,97264.63
2022-11-17T10:31:14.341Z,97260.00
2022-11-17T10:33:15.737Z,97271.53
2022-11-17T10:35:24.503Z,97268.44
2022-11-17T10:37:30.205Z,97272.56
2022-11-17T10:39:38.466Z,97265.69
2022-11-17T10:41:42.706Z,97267.25
2022-11-17T10:44:13.665Z,97277.19
2022-11-17T10:46:17.013Z,97272.53
2022-11-17T10:48:26.175Z,97274.53
2022-11-17T10:50:27.904Z,97277.88
2022-11-17T10:52:29.302Z,97284.13
2022-11-17T10:54:30.883Z,97274.44
2022-11-17T10:56:40.422Z,97278.59
2022-11-17T10:58:56.151Z,97279.88
2022-11-17T11:01:04.141Z,97280.59
2022-11-17T11:03:16.276Z,97285.59
2022-11-17T11:05:19.760Z,97286.00
2022-11-17T11:07:23.360Z,97282.66
2022-11-17T11:09:26.539Z,97285.22
2022-11-17T11:11:36.267Z,97281.34
2022-11-17T11:13:48.447Z,97285.06
2022-11-17T11:15:49.948Z,97284.72
2022-11-17T11:17:51.669Z,97285.28
2022-11-17T11:19:54.199Z,97283.69
2022-11-17T11:22:18.317Z,97277.06
2022-11-17T11:24:48.723Z,97282.63
2022-11-17T11:27:27.806Z,97292.50
2022-11-17T11:29:56.538Z,97295.84
2022-11-17T11:32:23.294Z,97291.63
2022-11-17T11:34:47.212Z,97301.94
2022-11-17T11:37:12.668Z,97301.47
2022-11-17T11:39:42.032Z,97296.09
2022-11-17T11:42:09.551Z,97308.03
2022-11-17T11:44:30.975Z,97314.72
2022-11-17T11:46:46.786Z,97314.00
2022-11-17T11:48:52.101Z,97305.69
2022-11-17T11:51:09.677Z,97304.03
2022-11-17T11:53:27.048Z,97310.88
2022-11-17T11:55:35.144Z,97311.44
2022-11-17T11:57:42.819Z,97318.06
2022-11-17T12:00:03.783Z,97311.91
2022-11-17T12:02:18.490Z,97321.81
2022-11-17T12:04:32.722Z,97327.44
2022-11-17T12:06:53.739Z,97326.31
2022-11-17T12:09:07.061Z,97323.31
2022-11-17T12:11:34.716Z,97325.00
2022-11-17T12:13:45.331Z,97332.09
2022-11-17T12:15:48.775Z,97334.16
2022-11-17T12:17:56.857Z,97339.84
2022-11-17T12:20:07.618Z,97327.53
2022-11-17T12:22:41.454Z,97330.59
2022-11-17T12:24:42.868Z,97335.69
2022-11-17T12:26:44.307Z,97339.47
2022-11-17T12:28:46.046Z,97340.78
2022-11-17T12:30:47.327Z,97343.28
2022-11-17T12:32:48.641Z,97338.75
2022-11-17T12:35:25.259Z,97345.81
2022-11-17T12:37:26.838Z,97342.94
2022-11-17T12:40:02.132Z,97342.88
2022-11-17T12:42:05.316Z,97333.53
2022-11-17T12:44:37.853Z,97332.28
2022-11-17T12:46:40.138Z,97336.19
2022-11-17T12:48:52.780Z,97331.84
2022-11-17T12:51:04.612Z,97329.25
2022-11-17T12:53:17.106Z,97332.44
2022-11-17T12:55:18.411Z,97341.28
2022-11-17T12:57:32.891Z,97339.38
2022-11-17T13:00:07.691Z,97339.63
2022-11-17T13:02:40.542Z,97347.94
2022-11-17T13:04:55.174Z,97350.19
2022-11-17T13:07:05.689Z,97352.09
2022-11-17T13:09:11.797Z,97347.63
2022-11-17T13:11:17.550Z,97353.09
2022-11-17T13:13:21.766Z,97353.69
2022-11-17T13:15:23.917Z,97346.78
2022-11-17T13:17:30.501Z,97352.91
2022-11-17T13:19:41.238Z,97349.63
2022-11-17T13:21:45.331Z,97354.66
2022-11-17T13:23:46.685Z,97349.78
2022-11-17T13:25:49.077Z,97363.59
2022-11-17T13:27:56.097Z,97368.13
2022-11-17T13:30:21.838Z,97362.56
2022-11-17T13:32:28.272Z,97365.16
2022-11-17T13:34:30.109Z,97371.91
2022-11-17T13:36:31.727Z,97373.84
2022-11-17T13:38:33.177Z,97371.47
2022-11-17T13:40:37.044Z,97371.34
2022-11-17T13:42:38.570Z,97378.19
2022-11-17T13:44:40.052Z,97373.81
2022-11-17T13:46:41.554Z,97376.38
2022-11-17T13:48:45.487Z,97369.31
2022-11-17T13:50:46.876Z,97369.25
2022-11-17T13:52:57.930Z,97374.88
2022-11-17T13:54:59.742Z,97379.03
2022-11-17T13:57:07.826Z,97379.28
2022-11-17T13:59:18.305Z,97377.97
2022-11-17T14:01:29.129Z,97384.22
2022-11-17T14:03:41.563Z,97382.75
2022-11-17T14:05:57.452Z,97374.00
2022-11-17T14:08:10.596Z,97385.09
2022-11-17T14:10:14.641Z,97380.75
2022-11-17T14:12:16.840Z,97380.28
2022-11-17T14:14:38.408Z,97380.78
2022-11-17T14:16:41.318Z,97378.78
2022-11-17T14:18:42.789Z,97378.81
2022-11-17T14:20:44.262Z,97382.31
2022-11-17T14:23:08.500Z,97383.47
2022-11-17T14:25:12.566Z,97382.16
2022-11-17T14:27:36.377Z,97375.56
2022-11-17T14:29:37.753Z,97389.09
2022-11-17T14:31:39.122Z,97387.59
2022-11-17T14:33:40.834Z,97387.03
2022-11-17T14:35:43.264Z,97389.09
2022-11-17T14:37:44.717Z,97390.97
2022-11-17T14:39:46.090Z,97395.69
2022-11-17T14:41:49.646Z,97401.25
2022-11-17T14:43:51.234Z,97406.25
2022-11-17T14:45:52.690Z,97400.69
2022-11-17T14:47:54.056Z,97405.50
2022-11-17T14:49:55.405Z,97404.25
2022-11-17T14:51:59.059Z,97403.78
2022-11-17T14:54:00.509Z,97406.41
2022-11-17T14:56:09.177Z,97408.84
2022-11-17T14:58:10.548Z,97405.97
2022-11-17T15:00:18.851Z,97409.13
2022-11-17T15:02:21.758Z,97415.81
2022-11-17T15:06:44.627Z,97410.25
2022-11-17T15:08:45.975Z,97415.53
2022-11-17T15:10:47.439Z,97419.22
2022-11-17T15:12:48.808Z,97415.84
2022-11-17T15:14:50.176Z,97415.66
2022-11-17T15:16:51.596Z,97419.91
2022-11-17T15:18:52.964Z,97424.91
2022-11-17T15:21:05.351Z,97423.88
2022-11-17T15:23:06.794Z,97420.13
2022-11-17T15:25:08.680Z,97431.78
2022-11-17T15:27:10.505Z,97433.88
2022-11-17T15:29:18.018Z,97442.59
2022-11-17T15:31:20.139Z,97443.69
2022-11-17T15:33:21.621Z,97439.25
2022-11-17T15:35:23.032Z,97452.22
2022-11-17T15:37:24.561Z,97449.88
2022-11-17T15:39:25.928Z,97451.69
2022-11-17T15:41:31.431Z,97454.09
2022-11-17T15:43:36.932Z,97459.31
2022-11-17T15:45:38.349Z,97461.22
2022-11-17T15:47:39.697Z,97456.44
2022-11-17T15:49:41.031Z,97460.97
2022-11-17T15:51:42.399Z,97457.31
2022-11-17T15:53:44.914Z,97454.97
2022-11-17T15:55:46.265Z,97454.50
2022-11-17T15:57:47.613Z,97457.13
2022-11-17T15:59:49.027Z,97453.72
2022-11-17T16:01:50.365Z,97454.75
2022-11-17T16:03:52.714Z,97452.91
2022-11-17T16:05:54.119Z,97460.03
2022-11-17T16:07:55.700Z,97458.44
2022-11-17T16:09:57.151Z,97462.94
2022-11-17T16:11:58.684Z,97464.31
2022-11-17T16:14:00.805Z,97459.03
2022-11-17T16:16:02.602Z,97465.38
2022-11-17T16:18:04.011Z,97464.09
2022-11-17T16:20:06.046Z,97468.59
2022-11-17T16:22:07.425Z,97462.03
2022-11-17T16:24:11.511Z,97466.22
2022-11-17T16:26:14.927Z,97477.22
2022-11-17T16:28:16.921Z,97474.56
2022-11-17T16:30:18.283Z,97480.66
2022-11-17T16:32:19.628Z,97474.56
2022-11-17T16:34:21.834Z,97486.69
2022-11-17T16:36:25.821Z,97486.13
2022-11-17T16:38:27.638Z,97480.03
2022-11-17T16:40:29.649Z,97480.09
2022-11-17T16:42:32.423Z,97478.50
2022-11-17T16:44:34.415Z,97487.53
2022-11-17T16:46:35.825Z,97492.53
2022-11-17T16:48:37.274Z,97493.84
2022-11-17T16:50:40.207Z,97491.97
2022-11-17T16:52:41.779Z,97496.16
2022-11-17T16:54:43.116Z,97486.84
2022-11-17T16:56:44.601Z,97493.50
2022-11-17T16:58:48.972Z,97494.78
2022-11-17T17:00:50.313Z,97492.94
2022-11-17T17:02:51.820Z,97494.78
2022-11-17T17:04:53.218Z,97497.97
2022-11-17T17:06:54.827Z,97494.28
2022-11-17T17:08:58.227Z,97485.31
2022-11-17T17:11:07.915Z,97486.41
2022-11-17T17:13:09.294Z,97493.59
2022-11-17T17:15:10.865Z,97493.09
2022-11-17T17:17:12.233Z,97489.63
2022-11-17T17:19:15.757Z,97497.03
2022-11-17T17:21:18.916Z,97497.53
2022-11-17T17:23:20.297Z,97503.09
2022-11-17T17:25:21.658Z,97502.31
2022-11-17T17:27:23.087Z,97505.75
2022-11-17T17:29:24.476Z,97503.09
2022-11-17T17:31:29.266Z,97510.72
2022-11-17T17:33:32.404Z,97503.59
2022-11-17T17:35:34.643Z,97506.00
2022-11-17T17:37:35.980Z,97514.97
2022-11-17T17:39:37.842Z,97517.06
2022-11-17T17:41:40.742Z,97509.13
2022-11-17T17:43:43.169Z,97514.16
2022-11-17T17:45:44.550Z,97516.22
2022-11-17T17:47:45.885Z,97516.75
2022-11-17T17:49:47.226Z,97518.31
2022-11-17T17:51:48.717Z,97515.09
2022-11-17T17:53:50.290Z,97516.97
2022-11-17T17:55:51.708Z,97515.34
2022-11-17T17:57:53.227Z,97518.28
2022-11-17T17:59:54.593Z,97523.81
2022-11-17T18:01:56.004Z,97526.94
2022-11-17T18:04:01.197Z,97528.53
2022-11-17T18:06:02.729Z,97522.72
2022-11-17T18:08:04.708Z,97518.75
2022-11-17T18:10:06.510Z,97526.44
2022-11-17T18:12:12.332Z,97525.69
2022-11-17T18:14:13.873Z,97526.25
2022-11-17T18:16:23.624Z,97532.88
2022-11-17T18:18:25.128Z,97525.00
2022-11-17T18:20:26.502Z,97531.63
2022-11-17T18:22:27.826Z,97536.16
2022-11-17T18:24:29.195Z,97539.63
2022-11-17T18:26:33.254Z,97534.34
2022-11-17T18:28:34.696Z,97544.38
2022-11-17T18:30:36.034Z,97554.41
2022-11-17T18:32:37.560Z,97554.66
2022-11-17T18:34:41.682Z,97553.91
2022-11-17T18:36:43.078Z,97555.47
2022-11-17T18:38:44.769Z,97557.34
2022-11-17T18:40:46.195Z,97558.66
2022-11-17T18:42:47.573Z,97567.06
2022-11-17T18:44:50.757Z,97558.41
2022-11-17T18:46:52.313Z,97564.72
2022-11-17T18:48:55.749Z,97567.59
2022-11-17T18:51:18.322Z,97572.06
2022-11-17T18:53:18.416Z,97579.69
2022-11-17T18:55:22.341Z,97578.13
2022-11-17T18:57:23.795Z,97578.94
2022-11-17T18:59:25.144Z,97583.94
2022-11-17T19:01:28.566Z,97582.31
2022-11-17T19:03:29.987Z,97579.69
2022-11-17T19:05:34.657Z,97589.69
2022-11-17T19:07:36.043Z,97584.38
2022-11-17T19:09:37.512Z,97595.63
2022-11-17T19:11:39.253Z,97596.63
2022-11-17T19:13:42.112Z,97595.03
2022-11-17T19:15:43.484Z,97595.25
2022-11-17T19:17:44.842Z,97601.00
2022-11-17T19:19:46.235Z,97599.38
2022-11-17T19:21:47.614Z,97603.09
2022-11-17T19:23:51.805Z,97618.06
2022-11-17T19:25:53.737Z,97614.88
2022-11-17T19:27:55.063Z,97620.91
2022-11-17T19:29:56.470Z,97625.59
2022-11-17T19:31:57.814Z,97621.63
2022-11-17T19:33:59.268Z,97630.09
2022-11-17T19:36:09.411Z,97627.19
2022-11-17T19:38:10.743Z,97630.56
2022-11-17T19:40:12.236Z,97636.06
2022-11-17T19:42:13.616Z,97633.69
2022-11-17T19:44:15.100Z,97632.63
2022-11-17T19:46:17.100Z,97641.38
2022-11-17T19:48:23.878Z,97634.38
2022-11-17T19:50:25.477Z,97647.53
2022-11-17T19:52:27.123Z,97642.84
2022-11-17T19:54:28.507Z,97650.44
2022-11-17T19:56:30.420Z,97650.44
2022-11-17T19:58:31.783Z,97649.88
2022-11-17T20:07:48.792Z,97652.31
2022-11-17T20:09:50.135Z,97652.84
2022-11-17T20:11:51.479Z,97653.38
2022-11-17T20:13:54.254Z,97659.41
2022-11-17T20:15:57.280Z,97658.84
2022-11-17T20:17:58.669Z,97660.75
2022-11-17T20:20:00.065Z,97663.94
2022-11-17T20:22:01.433Z,97665.81
2022-11-17T20:24:03.191Z,97670.75
2022-11-17T20:26:10.332Z,97671.78
2022-11-17T20:28:12.215Z,97673.63
2022-11-17T20:30:15.341Z,97679.38
2022-11-17T20:32:17.331Z,97672.53
2022-11-17T20:34:19.314Z,97685.69
2022-11-17T20:36:21.502Z,97679.09
2022-11-17T20:38:22.823Z,97683.31
2022-11-17T20:40:24.155Z,97683.03
2022-11-17T20:42:25.527Z,97688.38
2022-11-17T20:44:27.503Z,97697.38
2022-11-17T20:46:29.194Z,97692.13
2022-11-17T20:48:32.345Z,97701.72
2022-11-17T20:50:33.751Z,97703.28
2022-11-17T20:52:35.319Z,97702.22
2022-11-17T20:54:36.689Z,97710.41
2022-11-17T20:56:38.053Z,97704.06
2022-11-17T20:58:40.351Z,97703.56
2022-11-17T21:00:41.757Z,97705.16
2022-11-17T21:02:43.128Z,97701.72
2022-11-17T21:04:48.185Z,97707.47
2022-11-17T21:06:49.588Z,97704.81
2022-11-17T21:08:51.745Z,97712.72
2022-11-17T21:11:04.285Z,97714.31
2022-11-17T21:13:05.639Z,97718.78
2022-11-17T21:15:07.495Z,97718.00
2022-11-17T21:17:28.866Z,97715.34
2022-11-17T21:19:31.700Z,97719.88
2022-11-17T21:21:35.968Z,97730.63
2022-11-17T21:23:39.402Z,97730.06
2022-11-17T21:25:40.757Z,97727.19
2022-11-17T21:27:42.112Z,97728.50
2022-11-17T21:29:43.502Z,97735.81
2022-11-17T21:31:44.845Z,97737.72
2022-11-17T21:33:46.583Z,97738.47
2022-11-17T21:35:47.969Z,97737.91
2022-11-17T21:37:49.329Z,97745.78
2022-11-17T21:39:52.100Z,97742.31
2022-11-17T21:41:53.431Z,97747.78
2022-11-17T21:43:58.037Z,97756.69
2022-11-17T21:46:02.569Z,97751.72
2022-11-17T21:48:04.205Z,97753.84
2022-11-17T21:50:06.284Z,97751.28
2022-11-17T21:52:07.769Z,97757.06
2022-11-17T21:54:09.918Z,97754.66
2022-11-17T21:56:11.904Z,97757.50
2022-11-17T21:58:13.300Z,97765.16
2022-11-17T22:00:16.363Z,97762.53
2022-11-17T22:02:17.917Z,97761.22
2022-11-17T22:04:23.951Z,97768.31
2022-11-17T22:06:26.342Z,97766.72
2022-11-17T22:08:27.883Z,97767.16
2022-11-17T22:10:29.220Z,97770.81
2022-11-17T22:12:30.554Z,97771.03
2022-11-17T22:14:32.047Z,97774.75
2022-11-17T22:16:34.265Z,97774.97
2022-11-17T22:18:35.721Z,97774.03
2022-11-17T22:20:37.836Z,97776.88
2022-11-17T22:22:39.211Z,97777.91
2022-11-17T22:24:42.376Z,97782.41
2022-11-17T22:26:46.249Z,97779.78
2022-11-17T22:28:55.285Z,97779.88
2022-11-17T22:30:57.132Z,97778.03
2022-11-17T22:32:58.917Z,97774.06
2022-11-17T22:35:01.641Z,97779.53
2022-11-17T22:37:03.022Z,97780.00
2022-11-17T22:39:05.241Z,97778.63
2022-11-17T22:41:08.571Z,97787.59
2022-11-17T22:43:14.614Z,97788.66
2022-11-17T22:45:16.744Z,97786.81
2022-11-17T22:47:18.086Z,97787.59
2022-11-17T22:49:19.651Z,97786.53
2022-11-17T22:51:40.021Z,97792.28
2022-11-17T22:53:41.545Z,97791.16
2022-11-17T22:55:42.944Z,97797.41
2022-11-17T22:57:44.335Z,97793.38
2022-11-17T22:59:45.685Z,97791.25
2022-11-17T23:01:47.046Z,97790.41
2022-11-17T23:03:48.594Z,97797.66
2022-11-17T23:05:50.064Z,97795.72
2022-11-17T23:07:51.421Z,97796.06
2022-11-17T23:09:52.787Z,97797.47
2022-11-17T23:11:54.127Z,97804.22
2022-11-17T23:13:55.474Z,97809.94
2022-11-17T23:15:57.504Z,97811.41
2022-11-17T23:17:59.047Z,97810.25
2022-11-17T23:20:00.476Z,97808.13
2022-11-17T23:22:01.826Z,97812.25
2022-11-17T23:24:04.246Z,97821.16
2022-11-17T23:26:11.791Z,97816.59
2022-11-17T23:28:17.597Z,97818.41
2022-11-17T23:30:18.934Z,97819.53
2022-11-17T23:32:21.487Z,97820.50
2022-11-17T23:34:22.893Z,97825.19
2022-11-17T23:36:24.472Z,97829.66
2022-11-17T23:38:25.957Z,97829.34
2022-11-17T23:40:27.334Z,97830.84
2022-11-17T23:42:32.417Z,97837.28
2022-11-17T23:44:34.728Z,97837.84
2022-11-17T23:46:36.464Z,97841.44
2022-11-17T23:48:38.008Z,97846.34
2022-11-17T23:50:39.360Z,97846.91
2022-11-17T23:52:40.784Z,97852.47
2022-11-17T23:54:42.123Z,97852.06
2022-11-17T23:56:43.527Z,97848.25
2022-11-17T23:58:44.971Z,97856.03
